createdAt,value
2017-12-12T00:00:23.733Z,4.80
2017-12-12T00:02:51.189Z,5.07
2017-12-12T00:05:18.765Z,4.70
2017-12-12T00:07:46.217Z,5.10
2017-12-12T00:10:13.678Z,5.43
2017-12-12T00:12:41.161Z,4.60
2017-12-12T00:15:08.628Z,5.27
2017-12-12T00:17:36.102Z,4.73
2017-12-12T00:20:03.612Z,5.13
2017-12-12T00:22:43.068Z,5.00
2017-12-12T00:25:10.659Z,4.83
2017-12-12T00:27:38.106Z,5.23
2017-12-12T00:30:05.561Z,4.80
2017-12-12T00:32:33.056Z,4.93
2017-12-12T00:35:00.508Z,5.03
2017-12-12T00:37:27.983Z,5.03
2017-12-12T00:39:55.453Z,5.27
2017-12-12T00:42:22.925Z,4.70
2017-12-12T00:44:50.381Z,4.97
2017-12-12T00:47:17.857Z,4.60
2017-12-12T00:49:45.321Z,5.13
2017-12-12T00:52:12.811Z,4.93
2017-12-12T00:54:41.141Z,4.73
2017-12-12T00:57:08.613Z,5.30
2017-12-12T00:59:36.135Z,5.00
2017-12-12T01:02:03.650Z,5.00
2017-12-12T01:04:31.084Z,5.03
2017-12-12T01:06:58.557Z,5.73
2017-12-12T01:09:26.105Z,4.57
2017-12-12T01:11:53.581Z,5.33
2017-12-12T01:14:21.085Z,5.20
2017-12-12T01:16:48.561Z,5.57
2017-12-12T01:19:16.017Z,5.40
2017-12-12T01:21:43.496Z,5.33
2017-12-12T01:24:10.953Z,5.23
2017-12-12T01:26:38.432Z,5.37
2017-12-12T01:31:56.325Z,5.43
2017-12-12T01:34:23.781Z,4.90
2017-12-12T01:36:51.249Z,4.80
2017-12-12T01:39:18.705Z,4.60
2017-12-12T01:41:46.174Z,4.30
2017-12-12T01:44:13.632Z,4.80
2017-12-12T01:46:41.105Z,4.60
2017-12-12T01:49:08.560Z,4.30
2017-12-12T01:51:36.032Z,5.30
2017-12-12T01:54:03.484Z,4.80
2017-12-12T01:56:30.976Z,4.90
2017-12-12T01:58:58.433Z,4.90
2017-12-12T02:01:25.910Z,4.70
2017-12-12T02:03:53.365Z,4.67
2017-12-12T02:06:20.930Z,4.60
2017-12-12T02:08:48.393Z,5.27
2017-12-12T02:11:15.953Z,5.43
2017-12-12T02:13:43.422Z,5.17
2017-12-12T02:16:10.892Z,5.30
2017-12-12T02:18:38.345Z,4.67
2017-12-12T02:21:05.813Z,4.90
2017-12-12T02:23:33.264Z,4.70
2017-12-12T02:26:00.739Z,4.97
2017-12-12T02:28:28.194Z,4.70
2017-12-12T02:30:55.665Z,4.87
2017-12-12T02:33:23.125Z,4.93
2017-12-12T02:35:50.578Z,5.10
2017-12-12T02:38:18.053Z,4.93
2017-12-12T02:40:45.509Z,4.83
2017-12-12T02:43:13.065Z,4.83
2017-12-12T02:45:40.522Z,5.00
2017-12-12T02:48:07.993Z,4.50
2017-12-12T02:50:35.449Z,5.10
2017-12-12T02:53:02.925Z,4.93
2017-12-12T02:55:30.382Z,5.23
2017-12-12T02:57:57.864Z,4.87
2017-12-12T03:00:25.321Z,4.50
2017-12-12T03:02:52.790Z,5.40
2017-12-12T03:05:20.245Z,4.83
2017-12-12T03:07:47.717Z,4.90
2017-12-12T03:10:15.164Z,5.13
2017-12-12T03:12:42.637Z,4.70
2017-12-12T03:15:10.089Z,5.03
2017-12-12T03:17:37.567Z,4.60
2017-12-12T03:20:05.025Z,4.67
2017-12-12T03:22:32.492Z,5.13
2017-12-12T03:24:59.977Z,5.30
2017-12-12T03:27:27.449Z,4.97
2017-12-12T03:29:54.909Z,4.83
2017-12-12T03:32:22.380Z,5.03
2017-12-12T03:34:49.837Z,4.40
2017-12-12T03:37:17.315Z,4.60
2017-12-12T03:39:44.773Z,4.60
2017-12-12T03:42:12.252Z,5.00
2017-12-12T03:44:39.712Z,5.13
2017-12-12T03:47:07.180Z,5.33
2017-12-12T03:49:34.642Z,4.67
2017-12-12T03:52:02.117Z,5.60
2017-12-12T03:54:29.573Z,5.27
2017-12-12T03:56:57.040Z,4.70
2017-12-12T03:59:24.501Z,4.80
2017-12-12T04:01:51.973Z,4.73
2017-12-12T04:04:19.438Z,4.70
2017-12-12T04:06:46.905Z,4.90
2017-12-12T04:09:14.406Z,4.93
2017-12-12T04:11:41.869Z,4.60
2017-12-12T04:14:09.349Z,5.43
2017-12-12T04:16:36.804Z,4.77
2017-12-12T04:19:04.278Z,4.67
2017-12-12T04:21:31.736Z,4.63
2017-12-12T04:23:59.209Z,5.90
2017-12-12T04:26:26.668Z,4.50
2017-12-12T04:28:54.145Z,4.50
2017-12-12T04:31:21.600Z,4.60
2017-12-12T04:33:49.083Z,5.07
2017-12-12T04:36:16.540Z,4.40
2017-12-12T04:38:44.100Z,4.67
2017-12-12T04:41:11.554Z,4.33
2017-12-12T04:43:39.026Z,5.37
2017-12-12T04:46:06.491Z,4.40
2017-12-12T04:48:33.966Z,4.30
2017-12-12T04:51:01.437Z,4.70
2017-12-12T04:53:28.921Z,4.43
2017-12-12T04:55:56.378Z,4.90
2017-12-12T04:58:23.853Z,4.50
2017-12-12T05:00:51.310Z,4.70
2017-12-12T05:03:18.875Z,5.03
2017-12-12T05:05:46.336Z,4.70
2017-12-12T05:08:13.809Z,4.70
2017-12-12T05:10:41.269Z,4.77
2017-12-12T05:13:08.749Z,4.70
2017-12-12T05:15:36.200Z,4.97
2017-12-12T05:18:03.677Z,4.60
2017-12-12T05:20:31.129Z,5.33
2017-12-12T05:22:58.596Z,5.33
2017-12-12T05:25:26.049Z,4.30
2017-12-12T05:27:53.521Z,5.07
2017-12-12T05:30:21.005Z,4.90
2017-12-12T05:32:48.485Z,5.20
2017-12-12T05:35:15.937Z,5.47
2017-12-12T05:37:43.413Z,5.30
2017-12-12T05:40:10.874Z,5.53
2017-12-12T05:42:38.344Z,5.50
2017-12-12T05:45:05.807Z,6.00
2017-12-12T05:47:33.258Z,5.60
2017-12-12T05:50:00.736Z,6.30
2017-12-12T05:52:28.225Z,5.50
2017-12-12T05:54:55.697Z,5.30
2017-12-12T05:57:23.161Z,5.70
2017-12-12T05:59:50.697Z,5.30
2017-12-12T06:02:18.149Z,5.13
2017-12-12T06:04:45.616Z,5.20
2017-12-12T06:07:13.158Z,5.33
2017-12-12T06:09:40.632Z,4.80
2017-12-12T06:12:08.093Z,5.47
2017-12-12T06:14:35.583Z,5.37
2017-12-12T06:17:03.045Z,5.47
2017-12-12T06:19:30.559Z,5.40
2017-12-12T06:21:58.017Z,5.10
2017-12-12T06:24:25.493Z,5.73
2017-12-12T06:26:52.953Z,5.67
2017-12-12T06:29:20.429Z,5.53
2017-12-12T06:31:47.889Z,5.30
2017-12-12T06:34:15.408Z,5.33
2017-12-12T06:36:42.884Z,5.40
2017-12-12T06:39:10.359Z,6.13
2017-12-12T06:41:38.040Z,5.93
2017-12-12T06:44:05.512Z,6.00
2017-12-12T06:46:32.974Z,5.23
2017-12-12T06:49:00.448Z,5.50
2017-12-12T06:51:27.905Z,5.70
2017-12-12T06:53:55.378Z,6.17
2017-12-12T06:56:22.841Z,5.70
2017-12-12T06:58:50.320Z,5.80
2017-12-12T07:01:17.768Z,5.97
2017-12-12T07:03:45.241Z,6.23
2017-12-12T07:06:12.692Z,6.83
2017-12-12T07:08:40.169Z,6.80
2017-12-12T07:11:07.674Z,6.30
2017-12-12T07:13:35.153Z,6.60
2017-12-12T07:16:02.610Z,10.20
2017-12-12T07:18:30.092Z,6.23
2017-12-12T07:20:57.544Z,7.00
2017-12-12T07:23:25.024Z,6.13
2017-12-12T07:25:52.481Z,6.97
2017-12-12T07:28:19.957Z,6.47
2017-12-12T07:30:47.420Z,6.57
2017-12-12T07:33:14.912Z,6.33
2017-12-12T07:35:42.373Z,6.20
2017-12-12T07:38:09.853Z,5.90
2017-12-12T07:40:37.305Z,6.90
2017-12-12T07:43:04.772Z,6.57
2017-12-12T07:45:32.232Z,6.20
2017-12-12T07:47:59.709Z,5.77
2017-12-12T07:50:27.176Z,6.13
2017-12-12T07:52:54.644Z,6.20
2017-12-12T07:55:22.102Z,6.30
2017-12-12T07:57:49.573Z,6.27
2017-12-12T08:00:17.037Z,6.43
2017-12-12T08:02:44.496Z,6.63
2017-12-12T08:05:12.006Z,6.40
2017-12-12T08:07:39.460Z,6.87
2017-12-12T08:10:06.937Z,6.53
2017-12-12T08:12:34.397Z,6.90
2017-12-12T08:15:01.870Z,7.00
2017-12-12T08:17:29.339Z,6.37
2017-12-12T08:19:56.819Z,6.40
2017-12-12T08:22:24.272Z,6.50
2017-12-12T08:24:51.749Z,6.13
2017-12-12T08:27:19.200Z,6.93
2017-12-12T08:29:46.656Z,6.17
2017-12-12T08:32:14.129Z,6.40
2017-12-12T08:34:41.581Z,7.90
2017-12-12T08:37:09.061Z,6.67
2017-12-12T08:39:36.517Z,7.80
2017-12-12T08:42:03.997Z,6.40
2017-12-12T08:44:31.448Z,6.57
2017-12-12T08:46:59.022Z,6.00
2017-12-12T08:49:26.481Z,6.90
2017-12-12T08:51:53.957Z,11.73
2017-12-12T08:54:21.421Z,10.00
2017-12-12T08:56:48.889Z,5.90
2017-12-12T08:59:16.344Z,5.87
2017-12-12T09:01:43.825Z,6.47
2017-12-12T09:04:11.284Z,6.20
2017-12-12T09:06:38.756Z,5.67
2017-12-12T09:09:06.210Z,5.77
2017-12-12T09:11:33.680Z,6.10
2017-12-12T09:14:01.137Z,6.23
2017-12-12T09:16:28.613Z,6.30
2017-12-12T09:18:56.081Z,5.40
2017-12-12T09:21:23.627Z,6.27
2017-12-12T09:23:51.085Z,5.70
2017-12-12T09:26:18.561Z,6.23
2017-12-12T09:28:46.029Z,6.40
2017-12-12T09:31:13.501Z,6.13
2017-12-12T09:33:40.957Z,6.30
2017-12-12T09:36:08.413Z,6.40
2017-12-12T09:38:35.883Z,6.40
2017-12-12T09:41:03.341Z,6.27
2017-12-12T09:43:30.813Z,6.30
2017-12-12T09:45:58.277Z,7.50
2017-12-12T09:48:25.749Z,6.53
2017-12-12T09:50:53.200Z,7.07
2017-12-12T09:53:20.670Z,6.37
2017-12-12T09:55:48.133Z,7.10
2017-12-12T09:58:15.613Z,7.43
2017-12-12T10:00:43.064Z,6.47
2017-12-12T10:03:10.540Z,6.23
2017-12-12T10:05:38.008Z,6.40
2017-12-12T10:08:05.481Z,6.87
2017-12-12T10:10:32.933Z,5.97
2017-12-12T10:13:00.401Z,6.40
2017-12-12T10:15:27.856Z,8.57
2017-12-12T10:17:55.333Z,6.47
2017-12-12T10:20:22.788Z,7.43
2017-12-12T10:22:50.265Z,8.30
2017-12-12T10:25:17.721Z,6.17
2017-12-12T10:27:45.197Z,6.43
2017-12-12T10:30:12.666Z,6.83
2017-12-12T10:32:40.138Z,6.23
2017-12-12T10:35:07.589Z,6.53
2017-12-12T10:37:35.058Z,6.03
2017-12-12T10:40:02.509Z,6.10
2017-12-12T10:42:29.981Z,5.93
2017-12-12T10:44:57.447Z,7.47
2017-12-12T10:47:24.967Z,6.13
2017-12-12T10:49:52.425Z,6.47
2017-12-12T10:52:19.901Z,6.17
2017-12-12T10:54:47.362Z,6.63
2017-12-12T10:57:14.831Z,6.73
2017-12-12T10:59:42.294Z,5.80
2017-12-12T11:02:09.769Z,5.90
2017-12-12T11:04:37.224Z,5.80
2017-12-12T11:07:04.696Z,6.00
2017-12-12T11:09:32.153Z,5.80
2017-12-12T11:11:59.604Z,5.73
2017-12-12T11:14:27.085Z,7.47
2017-12-12T11:16:54.537Z,5.97
2017-12-12T11:19:22.013Z,6.10
2017-12-12T11:21:49.473Z,6.07
2017-12-12T11:24:16.949Z,5.80
2017-12-12T11:26:44.400Z,5.93
2017-12-12T11:29:11.878Z,5.47
2017-12-12T11:31:39.331Z,6.70
2017-12-12T11:34:06.805Z,6.03
2017-12-12T11:36:34.272Z,5.90
2017-12-12T11:39:01.743Z,6.57
2017-12-12T11:41:29.214Z,6.73
2017-12-12T11:43:56.701Z,6.73
2017-12-12T11:46:24.161Z,6.60
2017-12-12T11:48:51.641Z,7.00
2017-12-12T11:51:19.097Z,6.80
2017-12-12T11:53:46.699Z,7.43
2017-12-12T11:56:14.156Z,7.17
2017-12-12T11:58:41.629Z,7.30
2017-12-12T12:01:09.080Z,7.00
2017-12-12T12:03:36.549Z,6.57
2017-12-12T12:06:04.005Z,7.97
2017-12-12T12:08:31.543Z,8.10
2017-12-12T12:10:58.998Z,9.03
2017-12-12T12:13:26.477Z,7.93
2017-12-12T12:15:53.937Z,7.37
2017-12-12T12:18:21.413Z,11.17
2017-12-12T12:20:48.872Z,8.63
2017-12-12T12:23:16.352Z,8.17
2017-12-12T12:25:43.804Z,9.23
2017-12-12T12:28:11.293Z,11.73
2017-12-12T12:30:38.758Z,8.63
2017-12-12T12:33:06.245Z,10.20
2017-12-12T12:35:33.701Z,9.00
2017-12-12T12:38:01.180Z,13.53
2017-12-12T12:40:28.634Z,9.87
2017-12-12T12:42:56.104Z,9.90
2017-12-12T12:45:23.568Z,12.33
2017-12-12T12:47:51.047Z,7.47
2017-12-12T12:50:18.511Z,9.60
2017-12-12T12:52:46.082Z,23.93
2017-12-12T12:55:13.544Z,20.93
2017-12-12T12:57:41.140Z,16.53
2017-12-12T13:00:08.742Z,9.37
2017-12-12T13:02:36.223Z,10.20
2017-12-12T13:05:03.684Z,10.97
2017-12-12T13:07:31.185Z,10.83
2017-12-12T13:09:58.645Z,9.30
2017-12-12T13:12:26.117Z,7.60
2017-12-12T13:14:53.588Z,8.83
2017-12-12T13:17:21.057Z,7.83
2017-12-12T13:19:48.512Z,8.00
2017-12-12T13:22:16.037Z,8.80
2017-12-12T13:24:43.488Z,9.17
2017-12-12T13:27:10.968Z,7.67
2017-12-12T13:29:38.420Z,7.80
2017-12-12T13:32:05.877Z,8.47
2017-12-12T13:34:33.345Z,8.33
2017-12-12T13:37:00.814Z,8.23
2017-12-12T13:39:28.293Z,8.43
2017-12-12T13:41:55.757Z,8.67
2017-12-12T13:44:23.232Z,8.83
2017-12-12T13:46:50.680Z,9.53
2017-12-12T13:49:18.166Z,13.13
2017-12-12T13:51:45.630Z,8.63
2017-12-12T13:54:13.117Z,29.30
2017-12-12T13:56:40.577Z,9.20
2017-12-12T13:59:08.057Z,10.80
2017-12-12T14:01:35.512Z,8.50
2017-12-12T14:04:02.991Z,13.63
2017-12-12T14:06:30.452Z,10.63
2017-12-12T14:08:57.931Z,10.50
2017-12-12T14:11:25.393Z,9.97
2017-12-12T14:13:52.869Z,9.63
2017-12-12T14:16:20.320Z,8.60
2017-12-12T14:18:47.801Z,10.57
2017-12-12T14:21:15.263Z,8.90
2017-12-12T14:23:42.720Z,8.73
2017-12-12T14:26:10.205Z,10.07
2017-12-12T14:28:37.665Z,8.50
2017-12-12T14:31:05.141Z,9.87
2017-12-12T14:33:32.596Z,10.80
2017-12-12T14:36:00.081Z,8.50
2017-12-12T14:38:27.553Z,8.00
2017-12-12T14:40:55.103Z,10.23
2017-12-12T14:43:22.570Z,17.23
2017-12-12T14:45:50.049Z,10.23
2017-12-12T14:48:17.509Z,10.70
2017-12-12T14:50:44.989Z,10.83
2017-12-12T14:53:12.469Z,22.50
2017-12-12T14:55:39.957Z,12.87
2017-12-12T14:58:08.351Z,13.47
2017-12-12T15:00:35.812Z,10.77
2017-12-12T15:03:03.293Z,10.67
2017-12-12T15:05:30.761Z,9.20
2017-12-12T15:07:58.237Z,9.10
2017-12-12T15:10:25.721Z,13.60
2017-12-12T15:12:53.193Z,11.27
2017-12-12T15:15:20.660Z,12.20
2017-12-12T15:17:48.140Z,10.43
2017-12-12T15:20:15.608Z,10.30
2017-12-12T15:22:43.085Z,10.40
2017-12-12T15:25:10.566Z,13.10
2017-12-12T15:27:38.048Z,12.07
2017-12-12T15:30:05.517Z,13.53
2017-12-12T15:32:33.002Z,15.60
2017-12-12T15:35:00.461Z,15.43
2017-12-12T15:37:27.940Z,20.83
2017-12-12T15:39:55.404Z,19.60
2017-12-12T15:42:22.895Z,15.33
2017-12-12T15:44:50.400Z,21.10
2017-12-12T15:47:17.869Z,15.63
2017-12-12T15:49:45.357Z,13.10
2017-12-12T15:52:12.820Z,12.80
2017-12-12T15:54:40.301Z,13.23
2017-12-12T15:57:07.764Z,22.80
2017-12-12T15:59:35.245Z,17.77
2017-12-12T16:02:02.713Z,28.03
2017-12-12T16:04:30.179Z,42.17
2017-12-12T16:06:57.662Z,23.90
2017-12-12T16:09:25.124Z,26.00
2017-12-12T16:11:52.719Z,18.90
2017-12-12T16:14:20.180Z,18.93
2017-12-12T16:16:47.668Z,22.43
2017-12-12T16:19:15.134Z,35.10
2017-12-12T16:21:42.597Z,20.27
2017-12-12T16:24:10.086Z,28.93
2017-12-12T16:26:37.575Z,20.67
2017-12-12T16:29:05.038Z,24.07
2017-12-12T16:31:32.525Z,26.40
2017-12-12T16:33:59.989Z,20.07
2017-12-12T16:36:27.453Z,19.13
2017-12-12T16:38:54.938Z,25.23
2017-12-12T16:41:22.404Z,16.93
2017-12-12T16:43:49.877Z,16.83
2017-12-12T16:46:17.364Z,15.13
2017-12-12T16:48:44.828Z,13.77
2017-12-12T16:51:12.293Z,13.67
2017-12-12T16:53:39.772Z,14.10
2017-12-12T16:56:07.237Z,16.97
2017-12-12T16:58:34.701Z,22.50
2017-12-12T17:01:02.189Z,18.07
2017-12-12T17:03:29.661Z,18.80
2017-12-12T17:05:57.133Z,13.97
2017-12-12T17:08:24.617Z,16.33
2017-12-12T17:10:52.106Z,13.47
2017-12-12T17:13:19.569Z,12.63
2017-12-12T17:15:47.079Z,13.50
2017-12-12T17:18:14.549Z,13.20
2017-12-12T17:20:42.033Z,13.60
2017-12-12T17:23:09.497Z,14.53
2017-12-12T17:25:37.078Z,13.23
2017-12-12T17:28:04.549Z,13.03
2017-12-12T17:30:32.012Z,13.63
2017-12-12T17:32:59.492Z,14.40
2017-12-12T17:35:26.961Z,14.10
2017-12-12T17:37:54.445Z,13.97
2017-12-12T17:40:21.909Z,12.63
2017-12-12T17:42:49.381Z,13.63
2017-12-12T17:45:16.861Z,13.30
2017-12-12T17:47:44.326Z,13.10
2017-12-12T17:50:11.814Z,13.03
2017-12-12T17:52:39.289Z,13.70
2017-12-12T17:55:06.810Z,13.77
2017-12-12T17:57:34.296Z,12.60
2017-12-12T18:00:01.776Z,13.00
2017-12-12T18:02:29.259Z,12.93
2017-12-12T18:04:56.727Z,13.37
2017-12-12T18:07:24.214Z,23.37
2017-12-12T18:09:51.681Z,15.17
2017-12-12T18:12:19.149Z,12.97
2017-12-12T18:14:46.629Z,15.20
2017-12-12T18:17:14.089Z,12.97
2017-12-12T18:19:41.573Z,15.13
2017-12-12T18:22:09.143Z,14.40
2017-12-12T18:24:36.608Z,13.63
2017-12-12T18:27:04.090Z,14.57
2017-12-12T18:29:31.552Z,16.20
2017-12-12T18:31:59.021Z,14.20
2017-12-12T18:34:26.509Z,17.40
2017-12-12T18:36:53.973Z,13.47
2017-12-12T18:39:21.446Z,13.83
2017-12-12T18:41:48.933Z,13.03
2017-12-12T18:44:16.400Z,13.00
2017-12-12T18:46:43.860Z,12.13
2017-12-12T18:49:11.345Z,12.93
2017-12-12T18:51:38.813Z,13.43
2017-12-12T18:54:06.277Z,12.67
2017-12-12T18:56:33.756Z,13.67
2017-12-12T18:59:01.216Z,13.50
2017-12-12T19:01:28.676Z,12.30
2017-12-12T19:03:56.157Z,13.20
2017-12-12T19:06:23.679Z,12.10
2017-12-12T19:08:51.240Z,12.20
2017-12-12T19:11:18.724Z,12.60
2017-12-12T19:13:46.247Z,12.20
2017-12-12T19:16:13.716Z,13.23
2017-12-12T19:18:41.197Z,11.70
2017-12-12T19:21:08.661Z,13.80
2017-12-12T19:23:36.124Z,11.73
2017-12-12T19:26:03.605Z,34.50
2017-12-12T19:28:31.068Z,11.77
2017-12-12T19:30:58.553Z,129.77
2017-12-12T19:33:26.077Z,101.27
2017-12-12T19:35:53.516Z,53.57
2017-12-12T19:38:21.006Z,23.63
2017-12-12T19:40:48.476Z,68.00
2017-12-12T19:43:15.956Z,38.43
2017-12-12T19:45:43.440Z,19.23
2017-12-12T19:48:10.925Z,18.17
2017-12-12T19:50:38.389Z,14.17
2017-12-12T19:53:05.853Z,15.67
2017-12-12T19:55:33.339Z,16.00
2017-12-12T19:58:00.800Z,17.37
2017-12-12T20:00:28.289Z,12.93
2017-12-12T20:02:55.747Z,18.23
2017-12-12T20:05:23.213Z,18.57
2017-12-12T20:07:50.725Z,49.20
2017-12-12T20:10:18.225Z,20.37
2017-12-12T20:12:45.709Z,13.97
2017-12-12T20:15:13.272Z,12.13
2017-12-12T20:17:40.789Z,13.33
2017-12-12T20:20:08.428Z,28.70
2017-12-12T20:22:35.921Z,14.37
2017-12-12T20:25:03.408Z,45.53
2017-12-12T20:27:30.868Z,61.70
2017-12-12T20:29:58.355Z,43.17
2017-12-12T20:32:25.845Z,27.53
2017-12-12T20:34:53.429Z,16.27
2017-12-12T20:37:20.953Z,16.23
2017-12-12T20:39:48.431Z,15.63
2017-12-12T20:42:15.945Z,17.93
2017-12-12T20:44:43.435Z,16.20
2017-12-12T20:47:10.933Z,19.70
2017-12-12T20:49:38.444Z,21.63
2017-12-12T20:52:05.937Z,23.83
2017-12-12T20:54:33.453Z,23.77
2017-12-12T20:57:00.892Z,25.07
2017-12-12T20:59:28.381Z,27.37
2017-12-12T21:01:55.861Z,24.67
2017-12-12T21:04:22.625Z,25.87
2017-12-12T21:06:50.108Z,26.67
2017-12-12T21:09:17.755Z,25.87
2017-12-12T21:11:45.236Z,24.97
2017-12-12T21:14:12.725Z,24.10
2017-12-12T21:16:40.204Z,24.57
2017-12-12T21:19:07.701Z,26.70
2017-12-12T21:21:35.185Z,25.50
2017-12-12T21:24:02.644Z,21.63
2017-12-12T21:26:30.109Z,21.10
2017-12-12T21:28:57.592Z,20.07
2017-12-12T21:31:25.968Z,20.77
2017-12-12T21:33:53.436Z,22.33
2017-12-12T21:36:20.917Z,20.87
2017-12-12T21:38:48.381Z,21.70
2017-12-12T21:41:15.939Z,20.70
2017-12-12T21:43:43.425Z,20.00
2017-12-12T21:46:10.901Z,19.43
2017-12-12T21:48:38.382Z,18.60
2017-12-12T21:51:05.875Z,18.37
2017-12-12T21:53:33.349Z,21.70
2017-12-12T21:56:00.813Z,23.43
2017-12-12T21:58:28.305Z,30.03
2017-12-12T22:00:55.769Z,30.93
2017-12-12T22:03:23.246Z,66.13
2017-12-12T22:05:50.737Z,42.37
2017-12-12T22:08:18.201Z,32.07
2017-12-12T22:10:45.684Z,86.77
2017-12-12T22:13:13.174Z,65.97
2017-12-12T22:15:40.642Z,42.73
2017-12-12T22:18:08.129Z,22.03
2017-12-12T22:20:35.600Z,21.33
2017-12-12T22:23:03.093Z,19.20
2017-12-12T22:25:30.566Z,18.73
2017-12-12T22:27:58.042Z,19.80
2017-12-12T22:30:25.539Z,21.13
2017-12-12T22:32:53.004Z,21.37
2017-12-12T22:35:20.493Z,20.23
2017-12-12T22:37:47.965Z,31.57
2017-12-12T22:40:15.438Z,19.33
2017-12-12T22:42:42.922Z,19.30
2017-12-12T22:45:10.397Z,22.47
2017-12-12T22:47:37.880Z,19.43
2017-12-12T22:50:05.344Z,26.20
2017-12-12T22:52:32.817Z,28.77
2017-12-12T22:55:00.325Z,25.10
2017-12-12T22:57:27.796Z,19.90
2017-12-12T22:59:55.282Z,64.07
2017-12-12T23:02:22.857Z,69.07
2017-12-12T23:04:50.345Z,111.27
2017-12-12T23:07:17.817Z,128.87
2017-12-12T23:09:45.325Z,36.20
2017-12-12T23:12:12.805Z,48.70
2017-12-12T23:14:40.278Z,36.07
2017-12-12T23:17:07.771Z,35.87
2017-12-12T23:19:35.258Z,33.73
2017-12-12T23:22:02.749Z,40.67
2017-12-12T23:24:30.216Z,25.93
2017-12-12T23:26:57.734Z,25.03
2017-12-12T23:29:25.250Z,29.27
2017-12-12T23:31:52.740Z,30.37
2017-12-12T23:34:20.211Z,28.00
2017-12-12T23:36:47.697Z,28.67
2017-12-12T23:39:15.165Z,25.27
2017-12-12T23:41:42.634Z,29.13
2017-12-12T23:44:10.129Z,24.97
2017-12-12T23:46:37.594Z,27.03
2017-12-12T23:49:05.082Z,27.30
2017-12-12T23:51:32.564Z,29.33
2017-12-12T23:54:00.070Z,29.50
2017-12-12T23:56:27.541Z,31.07
2017-12-12T23:58:55.024Z,29.57
